Time,TemperatureF,DewpointF,PressureIn,WindDirection,WindDirectionDegrees,WindSpeedMPH,WindSpeedGustMPH,Humidity,HourlyPrecipIn,Conditions,Clouds,dailyrainin,SoftwareType,DateUTC
2013-03-11 00:00:00,45.1,6.5,29.96,SW,224,0.0,0.0,20,0.00,,CLR,0.00,VWS V14.01,2013-03-11 04:00:00,
2013-03-11 00:05:00,45.5,6.8,29.96,SW,224,0.0,0.0,20,0.00,,CLR,0.00,VWS V14.01,2013-03-11 04:05:00,
2013-03-11 00:10:00,45.9,7.1,29.96,SW,224,0.0,0.0,20,0.00,,CLR,0.00,VWS V14.01,2013-03-11 04:10:00,
2013-03-11 00:16:00,46.2,7.4,29.96,SW,226,0.0,0.0,20,0.00,,CLR,0.00,VWS V14.01,2013-03-11 04:16:00,
2013-03-11 00:21:00,46.6,6.5,29.96,SW,225,0.0,2.2,19,0.00,,CLR,0.00,VWS V14.01,2013-03-11 04:21:00,
2013-03-11 00:26:00,46.9,6.8,29.96,South,179,4.9,4.9,19,0.00,,CLR,0.00,VWS V14.01,2013-03-11 04:26:00,
2013-03-11 00:31:00,46.9,6.8,29.96,South,188,0.0,4.9,19,0.00,,CLR,0.00,VWS V14.01,2013-03-11 04:31:00,
2013-03-11 00:36:00,47.3,7.1,29.96,SW,234,2.7,3.6,19,0.00,,CLR,0.00,VWS V14.01,2013-03-11 04:36:00,
2013-03-11 00:41:00,47.5,7.3,29.96,SW,225,0.0,3.6,19,0.00,,CLR,0.00,VWS V14.01,2013-03-11 04:41:00,
2013-03-11 00:46:00,47.7,7.4,29.93,SSW,200,2.7,5.4,19,0.00,,CLR,0.00,VWS V14.01,2013-03-11 04:46:00,
2013-03-11 00:51:00,47.7,7.4,29.93,SW,229,2.7,4.0,19,0.00,,CLR,0.00,VWS V14.01,2013-03-11 04:51:00,
2013-03-11 00:56:00,47.8,10.9,29.93,SSW,198,0.0,6.3,22,0.00,,CLR,0.00,VWS V14.01,2013-03-11 04:56:00,
2013-03-11 01:01:00,47.8,10.9,29.93,South,186,2.2,6.3,22,0.00,,OVC043,0.00,VWS V14.01,2013-03-11 05:01:00,
2013-03-11 01:06:00,47.8,10.9,29.93,SSW,207,2.2,5.4,22,0.00,,OVC043,0.00,VWS V14.01,2013-03-11 05:06:00,
2013-03-11 01:11:00,47.8,10.9,29.93,South,189,0.0,3.6,22,0.00,,OVC043,0.00,VWS V14.01,2013-03-11 05:11:00,
2013-03-11 01:16:00,47.8,10.9,29.93,WNW,285,3.6,3.6,22,0.00,,OVC043,0.00,VWS V14.01,2013-03-11 05:16:00,
2013-03-11 01:22:00,47.8,10.9,29.93,SE,138,0.0,2.7,22,0.00,,OVC043,0.00,VWS V14.01,2013-03-11 05:22:00,
2013-03-11 01:27:00,47.8,10.9,29.93,SSW,193,2.2,2.7,22,0.00,,OVC043,0.00,VWS V14.01,2013-03-11 05:27:00,
2013-03-11 01:32:00,47.8,10.9,29.93,SSE,162,3.1,8.7,22,0.00,,OVC043,0.00,VWS V14.01,2013-03-11 05:32:00,
2013-03-11 01:37:00,47.8,12.8,29.93,WNW,287,0.0,0.0,24,0.00,,OVC043,0.00,VWS V14.01,2013-03-11 05:37:00,
2013-03-11 01:42:00,47.8,12.8,29.93,SSW,204,0.0,5.4,24,0.00,,OVC043,0.00,VWS V14.01,2013-03-11 05:42:00,
2013-03-11 01:47:00,47.8,15.5,29.93,SSE,162,3.1,3.1,27,0.00,,OVC043,0.00,VWS V14.01,2013-03-11 05:47:00,
2013-03-11 01:52:00,47.7,15.3,29.93,SW,223,7.6,7.6,27,0.00,,OVC043,0.00,VWS V14.01,2013-03-11 05:52:00,
2013-03-11 01:57:00,47.7,16.2,29.93,SE,124,4.0,4.0,28,0.00,,OVC043,0.00,VWS V14.01,2013-03-11 05:57:00,
2013-03-11 02:02:00,47.5,16.8,29.93,SSE,160,2.7,4.0,29,0.00,,OVC041,0.00,VWS V14.01,2013-03-11 06:02:00,
2013-03-11 02:07:00,47.5,17.6,29.93,SSE,162,3.6,6.3,30,0.00,,OVC041,0.00,VWS V14.01,2013-03-11 06:07:00,
2013-03-11 02:13:00,47.3,18.2,29.93,SE,131,4.9,5.4,31,0.00,,OVC041,0.00,VWS V14.01,2013-03-11 06:13:00,
2013-03-11 02:18:00,47.3,19.0,29.93,SSW,192,6.3,8.3,32,0.00,,OVC041,0.00,VWS V14.01,2013-03-11 06:18:00,
2013-03-11 02:23:00,47.1,19.5,29.93,South,170,5.8,5.8,33,0.00,,OVC041,0.00,VWS V14.01,2013-03-11 06:23:00,
2013-03-11 02:28:00,46.9,20.0,29.93,NE,46,2.7,4.0,34,0.00,,OVC041,0.00,VWS V14.01,2013-03-11 06:28:00,
2013-03-11 02:33:00,46.9,22.0,29.93,South,171,3.6,5.4,37,0.00,,OVC041,0.00,VWS V14.01,2013-03-11 06:33:00,
2013-03-11 02:38:00,46.8,21.9,29.93,SSW,211,3.6,3.6,37,0.00,,OVC041,0.00,VWS V14.01,2013-03-11 06:38:00,
2013-03-11 02:43:00,46.6,21.7,29.93,SE,134,3.1,3.1,37,0.00,,OVC041,0.00,VWS V14.01,2013-03-11 06:43:00,
2013-03-11 02:48:00,46.4,21.6,29.93,South,176,2.7,3.1,37,0.00,,OVC041,0.00,VWS V14.01,2013-03-11 06:48:00,
2013-03-11 02:53:00,46.4,22.2,29.93,South,189,3.6,3.6,38,0.00,,OVC041,0.00,VWS V14.01,2013-03-11 06:53:00,
2013-03-11 02:58:00,46.2,22.0,29.90,SW,235,4.0,4.0,38,0.00,,OVC041,0.00,VWS V14.01,2013-03-11 06:58:00,
2013-03-11 03:04:00,46.0,22.5,29.90,ESE,111,4.0,4.0,39,0.00,,OVC037,0.00,VWS V14.01,2013-03-11 07:04:00,
2013-03-11 03:09:00,46.0,22.5,29.90,SW,235,3.1,3.6,39,0.00,,OVC037,0.00,VWS V14.01,2013-03-11 07:09:00,
2013-03-11 03:14:00,45.9,22.9,29.90,SW,230,5.4,5.4,40,0.00,,OVC037,0.00,VWS V14.01,2013-03-11 07:14:00,
2013-03-11 03:19:00,45.9,22.9,29.90,SE,142,4.9,5.4,40,0.00,,OVC037,0.00,VWS V14.01,2013-03-11 07:19:00,
2013-03-11 03:24:00,45.5,23.2,29.90,SE,132,2.7,3.6,41,0.00,,OVC037,0.00,VWS V14.01,2013-03-11 07:24:00,
2013-03-11 03:29:00,45.5,23.2,29.90,South,191,2.2,3.1,41,0.00,,OVC037,0.00,VWS V14.01,2013-03-11 07:29:00,
2013-03-11 03:34:00,45.5,23.8,29.90,SW,223,2.2,4.9,42,0.00,,OVC037,0.00,VWS V14.01,2013-03-11 07:34:00,
2013-03-11 03:39:00,45.3,23.6,29.90,SSE,154,0.0,0.0,42,0.00,,OVC037,0.00,VWS V14.01,2013-03-11 07:39:00,
2013-03-11 03:45:00,45.3,24.2,29.90,WSW,242,5.8,5.8,43,0.00,,OVC037,0.00,VWS V14.01,2013-03-11 07:45:00,
2013-03-11 03:50:00,45.1,24.0,29.90,SSE,164,0.0,6.3,43,0.00,,OVC037,0.00,VWS V14.01,2013-03-11 07:50:00,
2013-03-11 03:55:00,45.1,23.4,29.90,SW,226,2.2,3.1,42,0.00,,OVC037,0.00,VWS V14.01,2013-03-11 07:55:00,
2013-03-11 04:00:00,45.1,24.0,29.90,SSE,160,6.3,7.6,43,0.00,,OVC037,0.00,VWS V14.01,2013-03-11 08:00:00,
2013-03-11 04:05:00,45.1,24.5,29.90,South,189,0.0,5.8,44,0.00,,OVC021,0.00,VWS V14.01,2013-03-11 08:05:00,
2013-03-11 04:10:00,45.1,24.5,29.90,ESE,117,5.8,5.8,44,0.00,,OVC021,0.00,VWS V14.01,2013-03-11 08:10:00,
2013-03-11 04:15:00,45.0,24.4,29.90,SSW,202,4.9,4.9,44,0.00,,OVC021,0.00,VWS V14.01,2013-03-11 08:15:00,
2013-03-11 04:20:00,45.0,24.9,29.90,SSE,161,2.2,4.0,45,0.00,,OVC021,0.00,VWS V14.01,2013-03-11 08:20:00,
2013-03-11 04:25:00,44.8,24.8,29.90,SSE,156,2.7,4.0,45,0.00,,OVC021,0.00,VWS V14.01,2013-03-11 08:25:00,
2013-03-11 04:30:00,44.8,25.3,29.87,South,169,2.7,4.5,46,0.00,,OVC021,0.00,VWS V14.01,2013-03-11 08:30:00,
2013-03-11 04:35:00,44.8,25.3,29.87,SSE,158,0.0,4.0,46,0.00,,OVC021,0.00,VWS V14.01,2013-03-11 08:35:00,
2013-03-11 04:40:00,44.8,25.8,29.87,SE,135,3.1,3.1,47,0.00,,OVC021,0.00,VWS V14.01,2013-03-11 08:40:00,
2013-03-11 04:45:00,44.8,25.8,29.87,West,266,6.3,6.7,47,0.00,,OVC021,0.00,VWS V14.01,2013-03-11 08:45:00,
2013-03-11 04:50:00,44.8,26.3,29.87,SSE,147,2.7,4.0,48,0.00,,OVC021,0.00,VWS V14.01,2013-03-11 08:50:00,
2013-03-11 04:55:00,44.8,26.8,29.87,SE,131,6.3,7.6,49,0.00,,OVC021,0.00,VWS V14.01,2013-03-11 08:55:00,
2013-03-11 05:00:00,44.8,28.2,29.87,SE,125,2.7,2.7,52,0.00,,OVC015,0.00,VWS V14.01,2013-03-11 09:00:00,
2013-03-11 05:05:00,45.0,29.3,29.87,SSE,154,0.0,4.9,54,0.00,,OVC015,0.00,VWS V14.01,2013-03-11 09:05:00,
2013-03-11 05:11:00,45.0,29.8,29.87,West,277,2.7,4.9,55,0.00,,OVC015,0.00,VWS V14.01,2013-03-11 09:11:00,
2013-03-11 05:16:00,45.1,30.4,29.87,West,272,0.0,0.0,56,0.00,,OVC015,0.00,VWS V14.01,2013-03-11 09:16:00,
2013-03-11 05:21:00,45.1,30.4,29.87,South,185,0.0,3.6,56,0.00,,OVC015,0.00,VWS V14.01,2013-03-11 09:21:00,
2013-03-11 05:26:00,45.1,30.8,29.87,SE,135,3.6,5.4,57,0.00,,OVC015,0.00,VWS V14.01,2013-03-11 09:26:00,
2013-03-11 05:31:00,45.1,31.7,29.87,SW,229,5.4,6.3,59,0.00,,OVC015,0.00,VWS V14.01,2013-03-11 09:31:00,
2013-03-11 05:36:00,45.1,32.1,29.87,SSW,204,3.1,3.6,60,0.00,,OVC015,0.00,VWS V14.01,2013-03-11 09:36:00,
2013-03-11 05:41:00,45.1,32.1,29.87,South,177,0.0,0.0,60,0.00,,OVC015,0.00,VWS V14.01,2013-03-11 09:41:00,
2013-03-11 05:47:00,45.1,32.9,29.84,SSE,166,0.0,2.7,62,0.00,,OVC015,0.00,VWS V14.01,2013-03-11 09:47:00,
2013-03-11 05:52:00,45.1,32.9,29.84,SSE,160,0.0,0.0,62,0.00,,OVC015,0.00,VWS V14.01,2013-03-11 09:52:00,
2013-03-11 05:57:00,45.1,33.7,29.84,ESE,115,0.0,0.0,64,0.00,,OVC015,0.00,VWS V14.01,2013-03-11 09:57:00,
2013-03-11 06:02:00,45.1,33.7,29.84,SSE,161,3.1,3.1,64,0.00,,OVC015,0.00,VWS V14.01,2013-03-11 10:02:00,
2013-03-11 06:07:00,45.1,33.7,29.84,SW,227,0.0,0.0,64,0.00,,OVC015,0.00,VWS V14.01,2013-03-11 10:07:00,
2013-03-11 06:12:00,45.1,34.1,29.84,SW,226,3.1,3.1,65,0.00,,OVC015,0.00,VWS V14.01,2013-03-11 10:12:00,
2013-03-11 06:18:00,45.1,34.1,29.84,SE,144,0.0,0.0,65,0.00,,OVC015,0.00,VWS V14.01,2013-03-11 10:18:00,
2013-03-11 06:23:00,45.1,34.1,29.84,SSW,207,0.0,0.0,65,0.00,,OVC015,0.00,VWS V14.01,2013-03-11 10:23:00,
2013-03-11 06:28:00,45.1,34.1,29.84,SE,146,2.2,3.6,65,0.00,,OVC015,0.00,VWS V14.01,2013-03-11 10:28:00,
2013-03-11 06:33:00,45.1,34.1,29.87,South,185,3.1,3.1,65,0.00,,OVC015,0.00,VWS V14.01,2013-03-11 10:33:00,
2013-03-11 06:38:00,45.1,34.1,29.87,East,91,3.1,3.1,65,0.00,,OVC015,0.00,VWS V14.01,2013-03-11 10:38:00,
2013-03-11 06:43:00,45.1,34.8,29.87,WSW,249,0.0,2.7,67,0.00,,OVC015,0.00,VWS V14.01,2013-03-11 10:43:00,
2013-03-11 06:48:00,45.1,34.8,29.87,South,170,2.2,6.3,67,0.00,,OVC015,0.00,VWS V14.01,2013-03-11 10:48:00,
2013-03-11 06:53:00,45.1,35.2,29.87,SSW,210,4.0,5.8,68,0.00,,OVC015,0.00,VWS V14.01,2013-03-11 10:53:00,
2013-03-11 06:58:00,45.1,35.2,29.87,WSW,250,2.2,2.2,68,0.00,,OVC015,0.00,VWS V14.01,2013-03-11 10:58:00,
2013-03-11 07:03:00,45.1,35.2,29.87,SSE,164,3.1,3.1,68,0.00,,OVC013,0.00,VWS V14.01,2013-03-11 11:03:00,
2013-03-11 07:09:00,45.1,35.2,29.87,SSE,154,0.0,0.0,68,0.00,,OVC013,0.00,VWS V14.01,2013-03-11 11:09:00,
2013-03-11 07:14:00,45.1,35.6,29.87,SSE,165,2.7,7.2,69,0.00,,OVC013,0.00,VWS V14.01,2013-03-11 11:14:00,
2013-03-11 07:19:00,45.0,35.4,29.87,SSE,164,0.0,5.8,69,0.00,,OVC013,0.00,VWS V14.01,2013-03-11 11:19:00,
2013-03-11 07:24:00,45.0,35.4,29.87,SSW,202,2.2,3.6,69,0.00,,OVC013,0.00,VWS V14.01,2013-03-11 11:24:00,
2013-03-11 07:29:00,45.0,35.4,29.87,SW,225,0.0,0.0,69,0.00,,OVC013,0.00,VWS V14.01,2013-03-11 11:29:00,
2013-03-11 07:34:00,45.0,35.4,29.87,SW,215,2.7,2.7,69,0.00,,OVC013,0.00,VWS V14.01,2013-03-11 11:34:00,
2013-03-11 07:39:00,44.8,35.2,29.87,SSE,167,4.0,4.9,69,0.00,,OVC013,0.00,VWS V14.01,2013-03-11 11:39:00,
2013-03-11 07:44:00,44.8,35.2,29.87,WNW,290,0.0,0.0,69,0.00,,OVC013,0.00,VWS V14.01,2013-03-11 11:44:00,
2013-03-11 07:49:00,44.8,35.2,29.87,SE,125,2.7,2.7,69,0.00,,OVC013,0.00,VWS V14.01,2013-03-11 11:49:00,
2013-03-11 07:54:00,44.8,35.2,29.87,SSW,206,0.0,4.0,69,0.00,,OVC013,0.00,VWS V14.01,2013-03-11 11:54:00,
2013-03-11 07:59:00,44.8,35.2,29.87,South,190,2.7,2.7,69,0.00,,OVC013,0.00,VWS V14.01,2013-03-11 11:59:00,
2013-03-11 08:04:00,44.8,35.2,29.87,South,190,0.0,0.0,69,0.00,,OVC013,0.00,VWS V14.01,2013-03-11 12:04:00,
2013-03-11 08:09:00,44.8,35.2,29.87,South,190,0.0,0.0,69,0.00,,OVC013,0.00,VWS V14.01,2013-03-11 12:09:00,
2013-03-11 08:14:00,44.8,35.2,29.87,SW,219,4.0,4.0,69,0.00,,OVC013,0.00,VWS V14.01,2013-03-11 12:14:00,
2013-03-11 08:20:00,44.8,35.2,29.87,SW,222,0.0,0.0,69,0.00,,OVC013,0.00,VWS V14.01,2013-03-11 12:20:00,
2013-03-11 08:25:00,44.8,35.2,29.87,SW,222,0.0,0.0,69,0.00,,OVC013,0.00,VWS V14.01,2013-03-11 12:25:00,
2013-03-11 08:30:00,44.8,35.2,29.87,South,174,0.0,3.6,69,0.00,,OVC013,0.00,VWS V14.01,2013-03-11 12:30:00,
2013-03-11 08:35:00,44.8,35.2,29.87,SW,219,4.5,5.8,69,0.00,,OVC013,0.00,VWS V14.01,2013-03-11 12:35:00,
2013-03-11 08:40:00,45.0,35.4,29.87,South,176,0.0,5.8,69,0.00,,OVC013,0.00,VWS V14.01,2013-03-11 12:40:00,
2013-03-11 08:45:00,45.0,35.4,29.87,South,184,5.8,5.8,69,0.00,,OVC013,0.00,VWS V14.01,2013-03-11 12:45:00,
2013-03-11 08:50:00,45.0,35.8,29.87,SW,226,2.2,3.6,70,0.00,,OVC013,0.00,VWS V14.01,2013-03-11 12:50:00,
2013-03-11 08:55:00,45.0,35.8,29.87,East,90,2.2,3.6,70,0.00,,OVC013,0.00,VWS V14.01,2013-03-11 12:55:00,
2013-03-11 09:00:00,45.1,36.3,29.87,South,170,0.0,5.4,71,0.00,,OVC013,0.00,VWS V14.01,2013-03-11 13:00:00,
2013-03-11 09:05:00,45.1,36.3,29.87,SSE,147,0.0,2.7,71,0.00,,-RA,0.00,VWS V14.01,2013-03-11 13:05:00,
2013-03-11 09:10:00,45.1,36.3,29.87,SSE,152,4.0,4.0,71,0.00,,-RA,0.00,VWS V14.01,2013-03-11 13:10:00,
2013-03-11 09:15:00,45.1,36.3,29.84,SW,223,0.0,3.1,71,0.00,,-RA,0.00,VWS V14.01,2013-03-11 13:15:00,
2013-03-11 09:20:00,45.1,36.3,29.84,SE,124,0.0,0.0,71,0.00,,-RA,0.00,VWS V14.01,2013-03-11 13:20:00,
2013-03-11 09:25:00,45.1,36.3,29.84,South,190,3.6,3.6,71,0.00,,-RA,0.00,VWS V14.01,2013-03-11 13:25:00,
2013-03-11 09:30:00,45.1,36.3,29.84,South,184,0.0,0.0,71,0.00,,-RA,0.00,VWS V14.01,2013-03-11 13:30:00,
2013-03-11 09:35:00,45.1,36.3,29.84,SSE,168,0.0,0.0,71,0.00,,-RA,0.00,VWS V14.01,2013-03-11 13:35:00,
2013-03-11 09:41:00,45.1,36.3,29.84,SSE,154,3.1,3.6,71,0.00,,-RA,0.00,VWS V14.01,2013-03-11 13:41:00,
2013-03-11 09:46:00,45.1,36.0,29.84,South,186,0.0,2.2,70,0.00,,-RA,0.00,VWS V14.01,2013-03-11 13:46:00,
2013-03-11 09:51:00,45.1,36.3,29.84,SE,145,2.7,2.7,71,0.00,,-RA,0.00,VWS V14.01,2013-03-11 13:51:00,
2013-03-11 09:56:00,45.1,36.3,29.84,South,175,4.9,4.9,71,0.00,,-RA,0.00,VWS V14.01,2013-03-11 13:56:00,
2013-03-11 10:01:00,45.1,36.3,29.84,NNE,14,3.1,3.6,71,0.00,,,0.00,VWS V14.01,2013-03-11 14:01:00,
2013-03-11 10:06:00,45.1,36.3,29.84,SE,133,3.6,4.9,71,0.00,,,0.00,VWS V14.01,2013-03-11 14:06:00,
2013-03-11 10:12:00,45.1,36.3,29.84,SSW,201,3.6,5.8,71,0.00,,,0.00,VWS V14.01,2013-03-11 14:12:00,
2013-03-11 10:17:00,45.1,36.3,29.84,SW,224,0.0,0.0,71,0.00,,,0.00,VWS V14.01,2013-03-11 14:17:00,
2013-03-11 10:22:00,45.3,36.5,29.84,South,170,0.0,0.0,71,0.00,,,0.00,VWS V14.01,2013-03-11 14:22:00,
2013-03-11 10:27:00,45.3,36.5,29.84,South,187,0.0,4.9,71,0.00,,,0.00,VWS V14.01,2013-03-11 14:27:00,
2013-03-11 10:32:00,45.3,36.5,29.84,ESE,108,3.6,5.4,71,0.04,,,0.04,VWS V14.01,2013-03-11 14:32:00,
2013-03-11 10:37:00,45.5,36.7,29.84,WSW,237,6.3,6.3,71,0.04,,,0.04,VWS V14.01,2013-03-11 14:37:00,
2013-03-11 10:42:00,45.3,36.5,29.84,SSE,152,0.0,3.1,71,0.04,,,0.04,VWS V14.01,2013-03-11 14:42:00,
2013-03-11 10:47:00,45.5,36.7,29.84,SE,146,5.4,5.4,71,0.04,,,0.04,VWS V14.01,2013-03-11 14:47:00,
2013-03-11 10:52:00,45.5,36.7,29.84,SSW,207,2.7,4.9,71,0.04,,,0.04,VWS V14.01,2013-03-11 14:52:00,
2013-03-11 10:57:00,45.5,36.7,29.84,SSE,152,2.7,4.0,71,0.08,,,0.08,VWS V14.01,2013-03-11 14:57:00,
2013-03-11 11:02:00,45.5,36.7,29.84,South,191,0.0,3.6,71,0.08,,,0.08,VWS V14.01,2013-03-11 15:02:00,
2013-03-11 11:07:00,45.7,36.8,29.84,SSE,147,0.0,3.1,71,0.08,,,0.08,VWS V14.01,2013-03-11 15:07:00,
2013-03-11 11:12:00,45.7,36.8,29.84,SSE,160,3.1,5.4,71,0.08,,,0.08,VWS V14.01,2013-03-11 15:12:00,
2013-03-11 11:18:00,45.7,36.8,29.84,SW,219,0.0,2.2,71,0.08,,,0.08,VWS V14.01,2013-03-11 15:18:00,
2013-03-11 11:23:00,45.9,37.0,29.84,SSW,196,0.0,5.4,71,0.08,,,0.08,VWS V14.01,2013-03-11 15:23:00,
2013-03-11 11:28:00,45.9,37.0,29.84,South,183,4.9,4.9,71,0.08,,,0.08,VWS V14.01,2013-03-11 15:28:00,
2013-03-11 11:33:00,45.9,37.0,29.84,SSE,162,3.1,3.1,71,0.08,,,0.12,VWS V14.01,2013-03-11 15:33:00,
2013-03-11 11:38:00,45.9,37.0,29.84,South,172,3.1,3.1,71,0.08,,,0.12,VWS V14.01,2013-03-11 15:38:00,
2013-03-11 11:43:00,45.9,37.0,29.81,ESE,110,3.1,4.9,71,0.08,,,0.12,VWS V14.01,2013-03-11 15:43:00,
2013-03-11 11:48:00,45.9,37.0,29.81,West,261,2.2,2.2,71,0.08,,,0.12,VWS V14.01,2013-03-11 15:48:00,
2013-03-11 11:53:00,45.9,37.0,29.81,SSE,150,4.0,4.9,71,0.12,,,0.16,VWS V14.01,2013-03-11 15:53:00,
2013-03-11 11:59:00,45.9,37.0,29.81,South,170,4.9,5.8,71,0.08,,,0.16,VWS V14.01,2013-03-11 15:59:00,
2013-03-11 12:04:00,45.9,37.0,29.81,SSE,147,4.5,4.5,71,0.08,,-RA,0.16,VWS V14.01,2013-03-11 16:04:00,
2013-03-11 12:09:00,45.9,37.0,29.81,South,170,4.0,4.0,71,0.08,,-RA,0.16,VWS V14.01,2013-03-11 16:09:00,
2013-03-11 12:14:00,45.9,37.0,29.81,WSW,238,6.3,6.3,71,0.08,,-RA,0.16,VWS V14.01,2013-03-11 16:14:00,
2013-03-11 12:19:00,45.9,37.0,29.81,SSE,149,0.0,0.0,71,0.08,,-RA,0.16,VWS V14.01,2013-03-11 16:19:00,
2013-03-11 12:24:00,45.9,37.0,29.81,SSE,157,4.9,4.9,71,0.08,,-RA,0.16,VWS V14.01,2013-03-11 16:24:00,
2013-03-11 12:29:00,45.9,37.0,29.81,SE,136,5.4,5.4,71,0.08,,-RA,0.16,VWS V14.01,2013-03-11 16:29:00,
2013-03-11 12:34:00,45.9,37.4,29.81,SSW,198,6.3,6.3,72,0.04,,-RA,0.16,VWS V14.01,2013-03-11 16:34:00,
2013-03-11 12:39:00,45.9,37.4,29.81,WSW,241,0.0,0.0,72,0.04,,-RA,0.16,VWS V14.01,2013-03-11 16:39:00,
2013-03-11 12:45:00,46.0,37.5,29.81,SW,214,5.4,5.4,72,0.04,,-RA,0.16,VWS V14.01,2013-03-11 16:45:00,
2013-03-11 12:50:00,46.0,37.5,29.81,SSW,213,3.1,4.9,72,0.04,,-RA,0.16,VWS V14.01,2013-03-11 16:50:00,
2013-03-11 12:55:00,46.2,37.7,29.81,SSE,154,3.6,4.0,72,0.00,,-RA,0.16,VWS V14.01,2013-03-11 16:55:00,
2013-03-11 13:00:00,46.2,37.7,29.81,SSE,162,0.0,4.9,72,0.00,,-RA,0.16,VWS V14.01,2013-03-11 17:00:00,
2013-03-11 13:05:00,46.2,37.7,29.81,South,190,0.0,0.0,72,0.00,,,0.16,VWS V14.01,2013-03-11 17:05:00,
2013-03-11 13:10:00,46.2,37.7,29.81,ESE,121,2.2,2.2,72,0.00,,,0.16,VWS V14.01,2013-03-11 17:10:00,
2013-03-11 13:15:00,46.4,37.9,29.81,South,184,3.1,3.1,72,0.00,,,0.16,VWS V14.01,2013-03-11 17:15:00,
2013-03-11 13:20:00,46.4,37.9,29.81,SW,226,0.0,5.8,72,0.00,,,0.16,VWS V14.01,2013-03-11 17:20:00,
2013-03-11 13:25:00,46.4,37.9,29.81,SW,214,6.3,6.3,72,0.00,,,0.16,VWS V14.01,2013-03-11 17:25:00,
2013-03-11 13:30:00,46.6,38.0,29.81,SSE,168,3.1,3.1,72,0.00,,,0.16,VWS V14.01,2013-03-11 17:30:00,